Cow Island, Louisiana
Current Conditions -  °F | °C
As of 12:35 AM on Thursday 27 Nov 2014 (Local Time) from KIYA Reporting Station
Clear Clear  
Wind Chill: 53°   Ceiling: Unl
Heat Index: 53°   Visibility: 10mi
Dew Point: 48°   Wind: 8mph
Humidity: 84%   Direction: 270°W
Pressure: 30.31"   Gusts: NA
Location:  29.8955°N, 92.208°W
Report Text: KIYA 270635Z AUTO 27007KT 10SM CLR 11/09 A3031 RMK AO2 T01140087
Loading
Personal Weather Stations






























Interactive Weather Map New forecast layout! Learn more

10-Day Weather Forecast

Advertisements
Track Severe Weather on mobile